Flight Track Log - Related Links

Times and Time Zones

All times are in EDT time to prevent confusion due to time zone crossing. See the N518Q flight status page for this flight to view local times or setup timezone preferences in your user account.

Time Position Orientation Groundspeed Altitude Reporting Facility
EDT Latitude Longitude Course Direction KTS MPH feet Rate Location/Type
Sun 06:15:00 PM 43.8975 -69.4217 235° Southwest  Level FlightAware Approximate
Sun 06:16:00 PM 43.8707 -69.4772 237° Southwest  Level FlightAware Approximate
Sun 06:17:00 PM 43.8447 -69.5334 237° Southwest  Level FlightAware Approximate
Sun 06:18:00 PM 43.8186 -69.5895 237° Southwest  Level FlightAware Approximate
Sun 06:19:00 PM 43.7925 -69.6455 237° Southwest  Level FlightAware Approximate
Sun 06:20:00 PM 43.7663 -69.7016 237° Southwest  Level FlightAware Approximate
Sun 06:21:00 PM 43.7402 -69.7575 237° Southwest  Level FlightAware Approximate
Sun 06:22:00 PM 43.7140 -69.8134 237° Southwest  Level FlightAware Approximate
Sun 06:23:00 PM 43.6878 -69.8693 237° Southwest  Level FlightAware Approximate
Sun 06:24:00 PM 43.6615 -69.9251 237° Southwest  Level FlightAware Approximate
Sun 06:25:00 PM 43.6353 -69.9809 237° Southwest  Level FlightAware Approximate
Sun 06:26:00 PM 43.6090 -70.0366 237° Southwest  Level FlightAware Approximate
Sun 06:27:00 PM 43.5826 -70.0922 237° Southwest  Level FlightAware Approximate
Sun 06:28:00 PM 43.5563 -70.1479 237° Southwest  Level FlightAware Approximate
Sun 06:29:00 PM 43.5299 -70.2034 237° Southwest  Level FlightAware Approximate
Sun 06:30:00 PM 43.5035 -70.2590 237° Southwest  Level FlightAware Approximate
Sun 06:31:00 PM 43.4771 -70.3144 237° Southwest  Level FlightAware Approximate
Sun 06:32:00 PM 43.4506 -70.3699 237° Southwest  Level FlightAware Approximate
Sun 06:33:00 PM 43.4241 -70.4252 237° Southwest  Level FlightAware Approximate
Sun 06:33:51 PM 43.4000 -70.4667 236° Southwest 180 207 8,000  Level KA90
Sun 06:34:00 PM 43.3976 -70.4806 237° Southwest  Level FlightAware Approximate
Sun 06:34:51 PM 43.3667 -70.5167 227° Southwest 180 207 8,000  Level KA90
Sun 06:35:00 PM 43.3711 -70.5359 237° Southwest  Level FlightAware Approximate
Sun 06:35:51 PM 43.3333 -70.5833 236° Southwest 181 208 8,000  Level KA90
Sun 06:36:00 PM 43.3445 -70.5911 237° Southwest  Level FlightAware Approximate
Sun 06:36:51 PM 43.3167 -70.6333 245° Southwest 181 208 8,000  Level KA90
Sun 06:37:00 PM 43.3179 -70.6463 236° Southwest  Level FlightAware Approximate
Sun 06:37:51 PM 43.2833 -70.7000 236° Southwest 182 209 8,000  Level KA90
Sun 06:38:00 PM 43.2911 -70.7012 236° Southwest  Level FlightAware Approximate
Sun 06:38:51 PM 43.2667 -70.7500 245° Southwest 181 208 8,000  Level KA90
Sun 06:39:00 PM 43.2639 -70.7558 236° Southwest  Level FlightAware Approximate
Sun 06:39:51 PM 43.2333 -70.8167 236° Southwest 181 208 8,000  Level KA90
Sun 06:40:51 PM 43.2000 -70.8667 228° Southwest 179 206 8,000  Level KA90
Sun 06:41:51 PM 43.1833 -70.9333 251° West 179 206 8,000  Level KA90
Sun 06:42:51 PM 43.1500 -70.9833 228° Southwest 179 206 8,000  Level KA90
Sun 06:43:51 PM 43.1167 -71.0333 228° Southwest 179 206 8,000  Level KA90
Sun 06:44:51 PM 43.1000 -71.1000 251° West 178 205 8,000  Level KA90
Sun 06:45:51 PM 43.0667 -71.1500 228° Southwest 177 204 8,000  Level KA90
Sun 06:46:51 PM 43.0500 -71.2167 251° West 176 203 8,000  Level KA90
Sun 06:47:51 PM 43.0167 -71.2667 228° Southwest 173 199 8,000  Level KA90
Sun 06:48:51 PM 42.9833 -71.3167 228° Southwest 171 197 8,000  Level KA90
Sun 06:49:51 PM 42.9667 -71.3667 246° West 170 196 8,000  Level KA90
Sun 06:50:51 PM 42.9333 -71.4333 236° Southwest 168 193 8,000  Level KA90
Sun 06:51:51 PM 42.9167 -71.4833 246° West 167 192 8,000  Level KA90
Sun 06:53:36 PM 42.8681 -71.5761 234° Southwest 171 197 8,000  Level Boston Center
Sun 06:54:36 PM 42.8456 -71.6217 236° Southwest 171 197 8,000  Level Boston Center
Sun 06:55:36 PM 42.8167 -71.6814 237° Southwest 166 191 8,000  Level Boston Center
Sun 06:56:36 PM 42.7919 -71.7300 235° Southwest 166 191 8,000  Level Boston Center
Sun 06:57:36 PM 42.7633 -71.7869 236° Southwest 172 198 8,000  Level Boston Center
Sun 06:58:36 PM 42.7406 -71.8350 237° Southwest 172 198 8,000  Level Boston Center
Sun 06:59:36 PM 42.7011 -71.8806 220° Southwest 172 198 8,000  Level Boston Center
Sun 07:00:36 PM 42.6617 -71.9008 201° Southwest 178 205 8,000  Level Boston Center
Sun 07:01:36 PM 42.6097 -71.9267 200° South 178 205 8,000  Level Boston Center
Sun 07:02:36 PM 42.5661 -71.9467 199° South 183 211 8,000  Level Boston Center
Sun 07:03:11 PM 42.5350 -71.9667 205° Southwest 181 208 8,000  Level Boston Center
Sun 07:03:36 PM 42.5161 -71.9753 199° South 188 216 8,000  Level Boston Center
Sun 07:04:05 PM 42.4933 -71.9925 209° Southwest 180 207 8,000  Level Boston Center
Sun 07:04:36 PM 42.4744 -71.9981 192° South 188 216 8,000  Level Boston Center
Sun 07:05:06 PM 42.4475 -72.0208 212° Southwest 183 211 8,000  Level Boston Center
Sun 07:05:36 PM 42.4247 -72.0350 205° Southwest 188 216 8,000  Level Boston Center
Sun 07:06:01 PM 42.4061 -72.0550 218° Southwest 185 213 8,000  Level Boston Center
Sun 07:06:36 PM 42.3853 -72.0664 202° Southwest 194 223 8,000  Level Boston Center
Sun 07:07:02 PM 42.3622 -72.0861 212° Southwest 184 212 8,000  Level Boston Center
Sun 07:07:37 PM 42.3394 -72.0975 200° South 194 223 8,000  Level Boston Center
Sun 07:08:02 PM 42.3144 -72.1256 220° Southwest 183 211 8,000  Level Boston Center
Sun 07:08:36 PM 42.2978 -72.1453 221° Southwest 188 216 8,000  Level Boston Center
Sun 07:09:03 PM 42.2750 -72.1650 213° Southwest 186 214 8,000  Level Boston Center
Sun 07:09:36 PM 42.2583 -72.1792 212° Southwest 188 216 8,000  Level Boston Center
Sun 07:10:04 PM 42.2333 -72.2044 217° Southwest 186 214 8,000  Level Boston Center
Sun 07:10:37 PM 42.2147 -72.2269 222° Southwest 188 216 8,000  Level Boston Center
Sun 07:10:58 PM 42.1961 -72.2467 218° Southwest 185 213 8,000  Level Boston Center
Sun 07:11:37 PM 42.1772 -72.2692 221° Southwest 188 216 8,000  Level Boston Center
Sun 07:11:59 PM 42.1564 -72.2944 222° Southwest 187 215 8,000  Level Boston Center
Sun 07:12:36 PM 42.1356 -72.3197 222° Southwest 193 222 8,000  Level Boston Center
Sun 07:13:00 PM 42.1169 -72.3394 218° Southwest 186 214 8,000  Level Boston Center
Sun 07:13:36 PM 42.0981 -72.3589 217° Southwest 187 215 8,000  Level Boston Center
Sun 07:14:00 PM 42.0794 -72.3814 222° Southwest 187 215 8,000  Level Boston Center
Sun 07:14:36 PM 42.0564 -72.4067 219° Southwest 187 215 8,000  Level Boston Center
Sun 07:15:37 PM 42.0189 -72.4456 218° Southwest 187 215 8,000  Level Boston Center
Sun 07:15:56 PM 42.0003 -72.4653 218° Southwest 184 212 8,000  Level Boston Center
Sun 07:16:37 PM 41.9731 -72.4958 220° Southwest 187 215 8,000  Level Boston Center
Sun 07:16:56 PM 41.9586 -72.5072 210° Southwest 188 216 8,000  Level Boston Center
Sun 07:17:36 PM 41.9378 -72.5322 222° Southwest 187 215 8,000  Level Boston Center
Sun 07:17:57 PM 41.9169 -72.5572 222° Southwest 187 215 8,000  Level Boston Center
Sun 07:18:58 PM 41.8731 -72.6047 219° Southwest 190 219 8,000  Level Boston Center
Sun 07:19:59 PM 41.8333 -72.6464 218° Southwest 190 219 8,000  Level Boston Center
Sun 07:21:05 PM 41.7894 -72.6961 220° Southwest 188 216 8,000  Level Boston Center
Sun 07:22:06 PM 41.7414 -72.7183 199° South 187 215 8,000  Level Boston Center
Sun 07:23:13 PM 41.6831 -72.7236 184° South 187 215 8,000 -354 Level Boston Center
Sun 07:25:00 PM 41.6223 -72.8062 225° Southwest  Level FlightAware Approximate
Sun 07:26:03 PM 41.5500 -72.7667 225° Southwest 191 220 6,600  Level New York TRACON
Sun 07:27:02 PM 41.5167 -72.8167 228° Southwest 188 216 6,100 -303 Descending New York TRACON
Sun 07:28:02 PM 41.5000 -72.8833 252° West 175 201 6,000 -50 Descending New York TRACON
Sun 07:29:02 PM 41.4833 -72.9500 252° West 170 196 6,000  Level New York TRACON
Sun 07:30:02 PM 41.4667 -73.0000 246° West 177 204 6,000  Level New York TRACON
Sun 07:31:02 PM 41.4500 -73.0667 252° West 178 205 6,000  Level New York TRACON
Sun 07:33:03 PM 41.4167 -73.1833 249° West 177 204 6,000  Level New York TRACON
Sun 07:35:00 PM 41.3733 -73.2946 243° Southwest  Level FlightAware Approximate
Sun 07:37:03 PM 41.3333 -73.4167 266° West 180 207 6,000  Level New York TRACON
Sun 07:38:03 PM 41.3167 -73.4833 252° West 178 205 6,000  Level New York TRACON
Sun 07:39:03 PM 41.3000 -73.5500 252° West 178 205 6,000  Level New York TRACON
Sun 07:40:03 PM 41.2833 -73.6000 246° West 178 205 6,000 -50 Level New York TRACON
Sun 07:42:00 PM 41.2593 -73.7090 266° West  Level FlightAware Approximate
Sun 07:42:00 PM 41.2689 -73.7237 261° West  Level FlightAware Approximate
Sun 07:43:03 PM 41.2667 -73.8000 261° West 171 197 5,800  Level New York TRACON
Sun 07:45:03 PM 41.2500 -73.9167 259° West 154 177 5,000 -300 Descending New York TRACON
Sun 07:46:03 PM 41.2500 -73.9667 270° West 141 162 4,900 -400 Descending New York TRACON
Sun 07:47:03 PM 41.2333 -74.0167 246° West 151 174 4,200 -450 Descending New York TRACON
Sun 07:48:03 PM 41.2333 -74.0833 270° West 154 177 4,000 -300 Descending New York TRACON
Sun 07:50:00 PM 41.2197 -74.2060 262° West  Level FlightAware Approximate
Sun 07:51:03 PM 41.1333 -74.1333 262° West 116 133 3,000  Level New York TRACON
Sun 07:52:03 PM 41.1000 -74.1500 201° Southwest 114 131 3,000 -100 Level New York TRACON
Sun 07:53:03 PM 41.0833 -74.1667 217° Southwest 123 142 2,800 -400 Descending New York TRACON
Sun 07:54:03 PM 41.0333 -74.1667 180° South 144 166 2,200 -600 Descending New York TRACON

Login

Don't have an account? Register now (free) for customized features, flight alerts, and more!